Time;durP1;ratioP1;P1;durP2;ratioP2;P2;SDS_P1;SDS_P2;PMS_P1;PMS_P2;Temp;Humidity;BMP_temperature;BMP_pressure;BME280_temperature;BME280_humidity;BME280_pressure;Samples;Min_cycle;Max_cycle;Signal;HPM_P1;HPM_P2
2022/10/17 00:00:42;;;;;;;29.63;13.33;;;;;;;7.98;100.00;95963.38;5110679;28;20196;-77
2022/10/17 00:03:10;;;;;;;25.17;14.30;;;;;;;8.13;100.00;95968.63;5110296;28;20207;-77
2022/10/17 00:05:40;;;;;;;21.03;11.93;;;;;;;8.23;100.00;95971.81;5110565;28;20200;-76
2022/10/17 00:08:07;;;;;;;23.17;14.10;;;;;;;8.27;100.00;95973.94;5110577;28;20223;-76
2022/10/17 00:10:33;;;;;;;22.03;13.13;;;;;;;8.30;99.37;95965.00;5110165;28;20200;-77
2022/10/17 00:13:02;;;;;;;21.17;11.40;;;;;;;8.26;99.41;95963.69;5109748;28;20298;-76
2022/10/17 00:15:29;;;;;;;19.60;11.83;;;;;;;8.34;98.07;95969.66;5109465;28;20196;-78
2022/10/17 00:17:56;;;;;;;18.13;10.53;;;;;;;8.30;98.38;95970.19;5109930;28;20200;-76
2022/10/17 00:20:23;;;;;;;15.90;10.03;;;;;;;8.28;97.99;95972.94;5107611;28;20604;-76
2022/10/17 00:22:50;;;;;;;16.07;9.77;;;;;;;8.21;98.78;95968.59;5109779;28;20226;-76
2022/10/17 00:25:17;;;;;;;20.57;11.30;;;;;;;8.24;98.07;95971.66;5110029;28;20215;-76
2022/10/17 00:27:44;;;;;;;19.67;10.80;;;;;;;8.21;98.57;95969.41;5109735;28;20200;-76
2022/10/17 00:30:15;;;;;;;14.60;9.83;;;;;;;8.10;98.48;95968.97;5110378;28;20557;-76
2022/10/17 00:32:42;;;;;;;14.37;9.80;;;;;;;8.04;99.20;95972.25;5109640;28;20204;-75
2022/10/17 00:35:09;;;;;;;16.67;9.70;;;;;;;8.04;99.26;95965.28;5109718;28;20257;-76
2022/10/17 00:37:36;;;;;;;16.83;9.70;;;;;;;8.06;98.77;95975.44;5109606;28;20203;-75
2022/10/17 00:40:04;;;;;;;16.57;9.83;;;;;;;7.96;99.44;95973.09;5110155;28;20238;-76
2022/10/17 00:42:31;;;;;;;19.83;10.97;;;;;;;7.53;100.00;95976.97;5110681;28;20207;-76
2022/10/17 00:45:07;;;;;;;16.93;10.83;;;;;;;7.18;100.00;95985.94;5106434;28;20265;-79
2022/10/17 00:47:36;;;;;;;21.00;10.73;;;;;;;7.04;100.00;95971.06;5108737;28;20260;-80
2022/10/17 00:50:03;;;;;;;21.03;12.37;;;;;;;7.26;100.00;95975.59;5110972;28;20199;-79
2022/10/17 00:52:31;;;;;;;22.53;13.30;;;;;;;7.37;100.00;95983.00;5110238;28;20697;-79
2022/10/17 00:55:02;;;;;;;20.57;11.87;;;;;;;7.47;100.00;95980.22;5108269;28;20196;-80
2022/10/17 00:57:31;;;;;;;20.73;11.63;;;;;;;7.55;100.00;95989.72;5108023;28;20197;-78
2022/10/17 01:00:02;;;;;;;21.47;11.03;;;;;;;7.56;100.00;95976.63;5107541;28;20658;-79
2022/10/17 01:02:29;;;;;;;19.50;11.00;;;;;;;7.57;100.00;95978.25;5105715;28;20200;-80
2022/10/17 01:04:59;;;;;;;16.80;9.53;;;;;;;7.61;100.00;95981.31;5111871;28;20196;-81
2022/10/17 01:07:27;;;;;;;20.00;10.03;;;;;;;7.54;100.00;95981.16;5108118;28;20295;-82
2022/10/17 01:09:54;;;;;;;19.43;10.00;;;;;;;7.46;100.00;95980.38;5110974;28;20204;-82
2022/10/17 01:12:25;;;;;;;20.53;11.67;;;;;;;7.54;100.00;95981.16;5111942;28;20284;-81
2022/10/17 01:15:09;;;;;;;20.60;12.20;;;;;;;7.62;100.00;95980.34;5111047;28;20200;-80
2022/10/17 01:17:48;;;;;;;21.70;11.83;;;;;;;7.71;100.00;95980.13;5106980;28;20205;-79
2022/10/17 01:20:54;;;;;;;23.17;12.30;;;;;;;7.80;100.00;95980.91;5109110;28;20227;-80
2022/10/17 01:23:42;;;;;;;18.70;11.60;;;;;;;7.74;100.00;95964.28;5110602;28;20215;-81
2022/10/17 01:26:19;;;;;;;24.90;11.67;;;;;;;7.81;100.00;95978.16;5108710;28;20204;-80
2022/10/17 01:29:13;;;;;;;28.37;17.37;;;;;;;7.84;99.38;95980.44;5109694;28;20249;-80
2022/10/17 01:31:47;;;;;;;18.23;11.47;;;;;;;7.83;100.00;95989.16;5105524;28;20211;-80
2022/10/17 01:34:20;;;;;;;20.83;12.90;;;;;;;7.81;100.00;95980.75;5106392;28;20195;-80
2022/10/17 01:36:52;;;;;;;20.47;12.93;;;;;;;7.78;100.00;95981.09;5107084;28;20212;-79
2022/10/17 01:39:29;;;;;;;25.33;13.60;;;;;;;7.47;99.59;95984.59;5109637;28;20226;-81
2022/10/17 01:42:01;;;;;;;23.87;13.97;;;;;;;7.11;100.00;95981.56;5110784;28;20231;-77
2022/10/17 01:44:34;;;;;;;25.23;15.10;;;;;;;6.93;100.00;95984.34;5108669;28;20681;-78
2022/10/17 01:47:07;;;;;;;23.10;14.33;;;;;;;6.97;100.00;95995.16;5107125;28;20465;-78
2022/10/17 01:49:36;;;;;;;25.43;14.30;;;;;;;7.00;100.00;95992.25;5107820;28;20249;-77
2022/10/17 01:52:08;;;;;;;24.60;14.17;;;;;;;6.97;100.00;95983.03;5109975;28;20207;-81
2022/10/17 01:54:41;;;;;;;27.23;14.60;;;;;;;7.15;100.00;95988.84;5111464;28;20196;-82
2022/10/17 01:57:13;;;;;;;30.23;15.03;;;;;;;7.23;100.00;95996.59;5111531;28;20204;-84
2022/10/17 01:59:42;;;;;;;24.90;14.87;;;;;;;7.30;100.00;95987.19;5111217;28;20706;-83
2022/10/17 02:02:14;;;;;;;24.93;14.60;;;;;;;7.34;100.00;95987.69;5111024;28;20203;-84
2022/10/17 02:04:42;;;;;;;26.43;15.27;;;;;;;7.38;100.00;95996.72;5110913;28;20227;-85
2022/10/17 02:07:11;;;;;;;23.20;14.93;;;;;;;7.49;100.00;95998.16;5108983;28;20200;-85
2022/10/17 02:09:39;;;;;;;25.73;15.50;;;;;;;7.56;100.00;96001.72;5109000;28;20203;-84
2022/10/17 02:12:38;;;;;;;27.00;15.90;;;;;;;7.50;99.95;96000.59;5110798;28;20192;-84
2022/10/17 02:15:34;;;;;;;26.47;15.20;;;;;;;7.48;100.00;95997.34;5106205;28;20196;-81
2022/10/17 02:18:16;;;;;;;24.80;14.33;;;;;;;7.48;100.00;96002.50;5106004;28;20214;-76
2022/10/17 02:20:52;;;;;;;25.40;16.00;;;;;;;7.42;100.00;96006.56;5107022;28;20666;-77
2022/10/17 02:23:27;;;;;;;24.53;14.50;;;;;;;7.44;100.00;95996.84;5108496;28;20195;-77
2022/10/17 02:26:01;;;;;;;29.03;16.63;;;;;;;7.50;99.18;96002.38;5109027;28;20192;-77
2022/10/17 02:28:33;;;;;;;27.43;16.63;;;;;;;7.49;99.59;96000.75;5107937;28;20199;-77
2022/10/17 02:31:04;;;;;;;31.03;16.47;;;;;;;7.48;99.49;96009.47;5108737;28;20196;-76
2022/10/17 02:33:39;;;;;;;24.63;16.17;;;;;;;7.47;99.57;96013.84;5105500;28;20200;-77
2022/10/17 02:36:11;;;;;;;41.90;17.03;;;;;;;6.90;100.00;96007.91;5104803;28;20207;-77
2022/10/17 02:38:41;;;;;;;29.23;17.07;;;;;;;6.44;100.00;96011.91;5108570;28;20227;-77
2022/10/17 02:41:11;;;;;;;28.37;17.90;;;;;;;6.29;100.00;96016.09;5108050;28;20719;-76
2022/10/17 02:43:39;;;;;;;36.73;17.43;;;;;;;6.27;100.00;96000.75;5108460;28;20196;-76
2022/10/17 02:46:07;;;;;;;31.27;18.70;;;;;;;6.45;100.00;96017.88;5108336;28;20199;-76
2022/10/17 02:48:42;;;;;;;35.30;20.90;;;;;;;6.51;100.00;96022.41;5106400;28;20658;-78
2022/10/17 02:51:16;;;;;;;30.60;19.73;;;;;;;6.65;100.00;96025.19;5108369;28;20191;-77
2022/10/17 02:53:50;;;;;;;39.57;19.13;;;;;;;6.75;100.00;96031.00;5108591;28;20199;-77
2022/10/17 02:56:19;;;;;;;31.83;18.10;;;;;;;6.82;100.00;96023.41;5109288;28;20673;-77
2022/10/17 02:58:50;;;;;;;34.23;18.87;;;;;;;6.91;100.00;96024.22;5107713;28;20654;-77
2022/10/17 03:01:18;;;;;;;31.83;19.93;;;;;;;6.94;100.00;96031.66;5108482;28;20277;-77
2022/10/17 03:03:46;;;;;;;37.63;20.97;;;;;;;7.00;100.00;96036.19;5107949;28;20200;-75
2022/10/17 03:06:13;;;;;;;39.37;20.63;;;;;;;7.03;100.00;96028.09;5107133;28;20260;-76
2022/10/17 03:08:39;;;;;;;35.73;21.27;;;;;;;7.00;100.00;96037.00;5108052;28;20211;-76
2022/10/17 03:11:06;;;;;;;36.73;20.90;;;;;;;7.02;100.00;96042.81;5107452;28;20206;-76
2022/10/17 03:13:33;;;;;;;37.27;20.23;;;;;;;7.03;100.00;96046.19;5107560;28;20204;-76
2022/10/17 03:16:00;;;;;;;40.07;20.80;;;;;;;7.13;100.00;96045.06;5108326;28;20206;-71
2022/10/17 03:18:27;;;;;;;42.73;23.17;;;;;;;7.10;100.00;96047.19;5106200;28;20200;-72
2022/10/17 03:20:55;;;;;;;47.73;24.00;;;;;;;7.12;100.00;96050.41;5107176;28;20562;-71
2022/10/17 03:23:22;;;;;;;47.43;25.17;;;;;;;7.12;100.00;96048.63;5107752;28;20208;-71
2022/10/17 03:25:48;;;;;;;42.87;26.50;;;;;;;7.11;100.00;96046.19;5107128;28;20215;-71
2022/10/17 03:28:15;;;;;;;56.83;31.07;;;;;;;7.16;99.90;96041.34;5106979;28;20203;-72
2022/10/17 03:30:42;;;;;;;50.23;30.93;;;;;;;6.71;100.00;96046.97;5106713;28;20261;-72
2022/10/17 03:33:09;;;;;;;54.43;29.47;;;;;;;6.12;100.00;96045.38;5108653;28;20204;-72
2022/10/17 03:35:38;;;;;;;55.33;30.87;;;;;;;5.98;100.00;96041.63;5111049;28;20268;-72
2022/10/17 03:38:06;;;;;;;62.37;33.10;;;;;;;6.02;100.00;96042.13;5111446;28;20214;-72
2022/10/17 03:40:33;;;;;;;64.80;36.13;;;;;;;6.11;100.00;96043.78;5110599;28;20242;-72
2022/10/17 03:43:00;;;;;;;51.93;29.37;;;;;;;6.23;100.00;96048.47;5111063;28;20207;-73
2022/10/17 03:45:27;;;;;;;58.43;31.77;;;;;;;6.34;100.00;96051.75;5108546;28;20207;-72
2022/10/17 03:47:53;;;;;;;63.97;34.07;;;;;;;6.37;100.00;96049.66;5111373;28;20206;-74
2022/10/17 03:50:20;;;;;;;59.93;32.40;;;;;;;6.38;100.00;96046.09;5111402;28;20265;-72
2022/10/17 03:52:48;;;;;;;61.13;30.87;;;;;;;6.44;100.00;96050.63;5110657;28;20223;-72
2022/10/17 03:55:16;;;;;;;51.47;29.90;;;;;;;6.40;100.00;96045.97;5110764;28;20246;-74
2022/10/17 03:57:43;;;;;;;52.83;28.33;;;;;;;6.56;100.00;96051.97;5110526;28;20204;-72
2022/10/17 04:00:11;;;;;;;47.20;27.70;;;;;;;6.61;100.00;96061.84;5110701;28;20721;-73
2022/10/17 04:02:38;;;;;;;46.83;26.97;;;;;;;6.65;100.00;96057.94;5110764;28;20207;-72
2022/10/17 04:05:06;;;;;;;47.13;27.23;;;;;;;6.74;100.00;96055.22;5110702;28;20636;-72
2022/10/17 04:07:33;;;;;;;46.93;27.07;;;;;;;6.74;100.00;96059.59;5110663;28;20211;-71
2022/10/17 04:09:59;;;;;;;45.07;26.43;;;;;;;6.82;100.00;96068.16;5111018;28;20207;-73
2022/10/17 04:12:28;;;;;;;41.67;24.83;;;;;;;6.85;100.00;96073.00;5107864;28;20211;-79
2022/10/17 04:14:55;;;;;;;46.30;26.70;;;;;;;6.81;100.00;96066.53;5110700;28;20200;-75
2022/10/17 04:17:21;;;;;;;47.73;29.20;;;;;;;6.83;100.00;96061.22;5110176;28;20314;-74
2022/10/17 04:19:49;;;;;;;65.13;35.90;;;;;;;6.81;100.00;96060.56;5110447;28;20212;-73
2022/10/17 04:22:16;;;;;;;55.03;33.10;;;;;;;6.60;100.00;96068.78;5110592;28;20212;-73
2022/10/17 04:24:43;;;;;;;57.43;32.87;;;;;;;6.02;100.00;96068.75;5110441;28;20207;-74
2022/10/17 04:27:10;;;;;;;54.80;28.93;;;;;;;5.63;100.00;96068.34;5110229;28;20287;-73
2022/10/17 04:29:38;;;;;;;56.73;28.53;;;;;;;5.74;100.00;96067.28;5110069;28;20685;-73
2022/10/17 04:32:05;;;;;;;63.30;33.60;;;;;;;5.89;100.00;96070.91;5110361;28;20199;-74
2022/10/17 04:34:32;;;;;;;60.97;31.50;;;;;;;6.01;100.00;96077.44;5110320;28;20654;-75
2022/10/17 04:36:59;;;;;;;57.63;31.47;;;;;;;6.10;100.00;96076.50;5110531;28;20657;-73
2022/10/17 04:39:26;;;;;;;51.90;28.83;;;;;;;6.21;100.00;96073.66;5107394;28;20200;-74
2022/10/17 04:41:53;;;;;;;61.57;31.13;;;;;;;6.28;100.00;96077.22;5110214;28;20247;-74
2022/10/17 04:44:23;;;;;;;53.80;30.50;;;;;;;6.40;100.00;96076.94;5108865;28;20222;-75
2022/10/17 04:46:51;;;;;;;58.20;33.57;;;;;;;6.45;100.00;96072.09;5109794;28;20290;-74
2022/10/17 04:49:18;;;;;;;60.10;34.57;;;;;;;6.47;100.00;96078.72;5109761;28;20280;-76
2022/10/17 04:51:44;;;;;;;79.97;33.97;;;;;;;6.56;100.00;96088.13;5109447;28;20207;-80
2022/10/17 04:54:11;;;;;;;66.20;33.20;;;;;;;6.57;100.00;96081.19;5109478;28;20204;-74
2022/10/17 04:56:38;;;;;;;70.03;34.53;;;;;;;6.56;100.00;96084.72;5109496;28;20200;-71
2022/10/17 04:59:05;;;;;;;83.63;37.17;;;;;;;6.57;100.00;96094.09;5109688;28;20211;-77
2022/10/17 05:01:31;;;;;;;72.53;35.80;;;;;;;6.60;100.00;96091.19;5109677;28;20224;-70
2022/10/17 05:04:00;;;;;;;75.40;36.30;;;;;;;6.58;100.00;96088.75;5109071;28;20192;-73
2022/10/17 05:06:27;;;;;;;71.67;35.57;;;;;;;6.63;100.00;96090.88;5105589;28;20577;-73
2022/10/17 05:08:54;;;;;;;69.90;34.23;;;;;;;6.55;100.00;96083.91;5109500;28;20291;-73
2022/10/17 05:11:23;;;;;;;60.63;31.87;;;;;;;6.66;100.00;96093.16;5109393;28;20665;-73
2022/10/17 05:13:51;;;;;;;71.73;32.53;;;;;;;6.74;100.00;96098.34;5108626;28;21013;-73
2022/10/17 05:16:18;;;;;;;82.43;31.10;;;;;;;6.77;100.00;96103.19;5083102;28;20929;-73
2022/10/17 05:18:44;;;;;;;72.70;31.63;;;;;;;6.76;100.00;96098.97;5104610;28;20576;-73
2022/10/17 05:21:13;;;;;;;63.97;30.27;;;;;;;6.78;100.00;96108.19;5107787;28;20224;-73
2022/10/17 05:23:39;;;;;;;54.20;29.17;;;;;;;6.84;100.00;96111.91;5108267;28;20315;-73
2022/10/17 05:26:06;;;;;;;59.60;29.43;;;;;;;6.82;100.00;96113.84;5108494;28;20195;-72
2022/10/17 05:28:34;;;;;;;51.43;27.83;;;;;;;6.74;100.00;96112.06;5108562;28;20299;-72
2022/10/17 05:31:03;;;;;;;59.33;28.20;;;;;;;6.81;100.00;96118.19;5108445;28;20199;-74
2022/10/17 05:33:30;;;;;;;57.93;26.83;;;;;;;6.83;100.00;96125.81;5103659;28;20200;-71
2022/10/17 05:35:57;;;;;;;58.07;27.13;;;;;;;6.94;100.00;96122.91;5108657;28;20241;-72
2022/10/17 05:38:26;;;;;;;54.47;26.73;;;;;;;6.97;100.00;96130.34;5108935;28;20200;-72
2022/10/17 05:40:56;;;;;;;68.53;28.57;;;;;;;7.01;100.00;96128.25;5108368;28;20244;-72
2022/10/17 05:43:23;;;;;;;50.93;22.87;;;;;;;7.05;100.00;96122.59;5107676;28;20210;-71
2022/10/17 05:45:50;;;;;;;58.03;22.87;;;;;;;7.11;100.00;96134.91;5107673;28;20758;-72
2022/10/17 05:48:17;;;;;;;37.53;19.73;;;;;;;7.11;100.00;96134.09;5107645;28;20215;-71
2022/10/17 05:50:43;;;;;;;39.73;20.83;;;;;;;7.11;100.00;96126.31;5107664;28;20699;-71
2022/10/17 05:53:10;;;;;;;37.10;19.83;;;;;;;7.19;100.00;96141.84;5108669;28;20208;-71
2022/10/17 05:55:38;;;;;;;37.30;18.77;;;;;;;7.25;100.00;96143.78;5107769;28;20208;-71
2022/10/17 05:58:05;;;;;;;36.30;17.80;;;;;;;7.23;100.00;96149.13;5107870;28;20204;-71
2022/10/17 06:00:32;;;;;;;31.27;17.67;;;;;;;7.23;100.00;96145.72;5107774;28;20232;-71
2022/10/17 06:02:59;;;;;;;35.50;16.03;;;;;;;7.29;100.00;96156.25;5104264;28;20204;-71
2022/10/17 06:05:25;;;;;;;25.57;15.40;;;;;;;7.29;100.00;96155.44;5108525;28;20685;-71
2022/10/17 06:07:52;;;;;;;24.90;14.33;;;;;;;7.27;100.00;96159.97;5107551;28;20211;-73
2022/10/17 06:10:19;;;;;;;22.13;13.40;;;;;;;7.26;100.00;96160.94;5107207;28;21447;-73
2022/10/17 06:12:47;;;;;;;20.20;12.90;;;;;;;7.30;100.00;96163.03;5107400;28;20208;-73
2022/10/17 06:15:14;;;;;;;20.07;12.50;;;;;;;7.34;100.00;96161.75;5107533;28;20600;-73
2022/10/17 06:17:41;;;;;;;19.97;12.10;;;;;;;7.36;100.00;96164.16;5105948;28;20242;-75
2022/10/17 06:20:09;;;;;;;21.77;11.67;;;;;;;7.44;100.00;96166.78;5105989;28;20208;-73
2022/10/17 06:22:35;;;;;;;19.63;11.27;;;;;;;7.51;99.55;96162.56;5105547;28;20288;-73
2022/10/17 06:25:02;;;;;;;17.33;11.20;;;;;;;7.56;100.00;96173.22;5106369;28;20208;-75
2022/10/17 06:27:29;;;;;;;19.10;11.83;;;;;;;7.58;99.96;96168.72;5105952;28;20625;-73
2022/10/17 06:29:59;;;;;;;26.70;13.70;;;;;;;7.58;99.76;96167.91;5106444;28;20204;-73
2022/10/17 06:32:26;;;;;;;23.07;14.50;;;;;;;7.65;100.00;96179.19;5106603;28;20196;-71
2022/10/17 06:34:52;;;;;;;25.33;14.57;;;;;;;7.72;99.81;96180.19;5106042;28;20204;-70
2022/10/17 06:37:19;;;;;;;28.80;15.60;;;;;;;7.82;98.24;96179.03;5106362;28;20246;-70
2022/10/17 06:39:46;;;;;;;26.23;14.67;;;;;;;7.94;98.28;96188.09;5105654;28;20196;-71
2022/10/17 06:42:13;;;;;;;32.00;16.17;;;;;;;8.00;97.81;96184.84;5105614;28;20235;-73
2022/10/17 06:44:40;;;;;;;28.53;16.20;;;;;;;8.02;97.38;96187.28;5105141;28;20200;-73
2022/10/17 06:47:09;;;;;;;35.50;17.53;;;;;;;7.96;98.19;96187.94;5105626;28;20204;-73
2022/10/17 06:49:36;;;;;;;29.67;16.87;;;;;;;7.99;97.82;96192.78;5106138;28;20204;-75
2022/10/17 06:52:03;;;;;;;33.83;17.27;;;;;;;7.97;98.56;96190.34;5105576;28;20191;-73
2022/10/17 06:54:29;;;;;;;28.13;17.63;;;;;;;8.00;98.48;96186.63;5106241;28;20297;-74
2022/10/17 06:56:56;;;;;;;24.23;16.10;;;;;;;7.94;98.35;96187.28;5105667;28;20204;-73
2022/10/17 06:59:23;;;;;;;26.73;15.20;;;;;;;7.76;97.90;96195.22;5106565;28;20208;-74
2022/10/17 07:01:50;;;;;;;22.97;14.73;;;;;;;7.49;100.00;96186.97;5105158;28;20228;-74
2022/10/17 07:04:18;;;;;;;25.27;16.33;;;;;;;7.55;100.00;96184.56;5105566;28;20203;-72
2022/10/17 07:06:45;;;;;;;28.73;15.53;;;;;;;7.70;100.00;96187.31;5105595;28;20208;-73
2022/10/17 07:09:12;;;;;;;31.07;15.83;;;;;;;7.87;100.00;96181.97;5104191;28;20200;-73
2022/10/17 07:11:39;;;;;;;31.90;16.33;;;;;;;8.06;100.00;96185.97;5105323;28;20239;-73
2022/10/17 07:14:05;;;;;;;33.73;17.80;;;;;;;8.19;99.21;96183.69;5105387;28;20207;-73
2022/10/17 07:16:34;;;;;;;31.63;18.27;;;;;;;8.22;98.80;96188.56;5104874;28;20204;-73
2022/10/17 07:19:01;;;;;;;29.87;18.40;;;;;;;8.30;98.50;96190.34;5103099;28;20214;-74
2022/10/17 07:21:29;;;;;;;33.70;17.80;;;;;;;8.36;98.09;96184.50;5102039;28;20236;-73
2022/10/17 07:23:56;;;;;;;36.43;18.20;;;;;;;8.52;97.79;96185.25;5105738;28;20211;-73
2022/10/17 07:26:23;;;;;;;36.50;18.20;;;;;;;8.65;96.98;96189.09;5105478;28;21263;-74
2022/10/17 07:28:53;;;;;;;33.43;18.43;;;;;;;8.73;96.83;96195.06;5104093;28;20215;-73
2022/10/17 07:31:22;;;;;;;36.83;17.60;;;;;;;8.76;95.66;96191.31;5105563;28;20204;-73
2022/10/17 07:33:49;;;;;;;33.90;18.37;;;;;;;8.84;96.09;96199.88;5103631;28;20661;-73
2022/10/17 07:36:16;;;;;;;36.53;18.83;;;;;;;8.89;95.15;96187.19;5104401;28;20207;-73
2022/10/17 07:38:45;;;;;;;30.97;19.27;;;;;;;8.81;96.08;96191.59;5104681;28;20576;-74
2022/10/17 07:41:12;;;;;;;36.83;19.63;;;;;;;8.74;96.43;96204.47;5104452;28;20239;-74
2022/10/17 07:43:40;;;;;;;33.17;18.80;;;;;;;8.48;97.21;96194.31;5105282;28;20230;-77
2022/10/17 07:46:07;;;;;;;31.87;19.37;;;;;;;8.68;97.18;96199.13;5106124;28;20215;-74
2022/10/17 07:48:35;;;;;;;41.77;20.60;;;;;;;8.83;95.87;96205.22;5105644;28;20207;-75
2022/10/17 07:51:07;;;;;;;40.93;19.77;;;;;;;8.97;96.05;96199.34;5102088;28;20204;-75
2022/10/17 07:53:35;;;;;;;30.13;19.37;;;;;;;9.05;95.02;96204.47;5103475;28;20204;-74
2022/10/17 07:56:06;;;;;;;34.60;19.80;;;;;;;8.86;94.57;96205.69;5103284;28;20210;-74
2022/10/17 07:58:33;;;;;;;37.67;20.60;;;;;;;8.85;99.25;96200.69;5104199;28;20295;-75
2022/10/17 08:01:01;;;;;;;38.90;19.73;;;;;;;8.94;98.75;96192.69;5106261;28;20211;-77
2022/10/17 08:03:28;;;;;;;36.40;20.13;;;;;;;9.09;98.25;96190.19;5107185;28;20204;-76
2022/10/17 08:05:58;;;;;;;43.63;20.67;;;;;;;9.21;96.25;96170.66;5106356;28;20215;-76
2022/10/17 08:08:25;;;;;;;35.07;19.70;;;;;;;9.52;94.38;96192.16;5105992;28;20674;-77
2022/10/17 08:10:52;;;;;;;40.47;20.53;;;;;;;9.80;92.64;96195.06;5106932;28;20208;-85
2022/10/17 08:13:43;;;;;;;41.00;20.27;;;;;;;9.73;91.90;96194.13;5107840;28;20303;-82
2022/10/17 08:16:14;;;;;;;39.47;19.67;;;;;;;9.83;92.53;96199.91;5105324;28;20577;-77
2022/10/17 08:18:43;;;;;;;38.20;20.73;;;;;;;10.01;91.15;96190.00;5108412;28;20201;-77
2022/10/17 08:21:12;;;;;;;34.23;19.00;;;;;;;10.29;90.09;96192.03;5108950;28;20192;-77
2022/10/17 08:23:39;;;;;;;37.73;19.20;;;;;;;10.56;87.57;96187.03;5110360;28;20212;-79
2022/10/17 08:26:09;;;;;;;36.70;20.10;;;;;;;10.33;87.65;96188.13;5106450;28;20200;-86
2022/10/17 08:28:38;;;;;;;33.83;20.37;;;;;;;10.44;86.46;96185.06;5111727;28;20239;-84
2022/10/17 08:31:06;;;;;;;31.43;19.27;;;;;;;10.73;86.13;96178.06;5113226;28;20212;-85
2022/10/17 08:33:34;;;;;;;29.77;18.80;;;;;;;11.15;84.04;96179.16;5111914;28;20211;-78
2022/10/17 08:36:01;;;;;;;38.03;19.67;;;;;;;11.54;81.83;96171.78;5107216;28;20643;-75
2022/10/17 08:38:29;;;;;;;36.70;19.03;;;;;;;12.10;80.24;96182.25;5110246;28;20211;-75
2022/10/17 08:40:59;;;;;;;32.97;18.40;;;;;;;12.52;77.56;96185.56;5109985;28;20319;-74
2022/10/17 08:43:43;;;;;;;26.43;18.13;;;;;;;12.97;74.73;96189.41;5106948;28;20232;-74
2022/10/17 08:46:10;;;;;;;37.00;16.63;;;;;;;13.38;71.47;96186.78;5108062;28;20640;-75
2022/10/17 08:48:40;;;;;;;27.07;16.30;;;;;;;13.83;70.15;96194.88;5109408;28;20204;-74
2022/10/17 08:51:13;;;;;;;32.17;16.67;;;;;;;13.97;67.87;96194.69;5109811;28;20238;-73
2022/10/17 08:53:48;;;;;;;30.67;16.67;;;;;;;13.84;67.57;96193.88;5109470;28;20282;-75
2022/10/17 08:56:20;;;;;;;30.37;17.07;;;;;;;13.85;67.98;96198.13;5108520;28;20203;-74
2022/10/17 08:58:49;;;;;;;30.30;16.80;;;;;;;14.37;66.04;96198.13;5109272;28;20219;-74
2022/10/17 09:01:32;;;;;;;29.57;16.67;;;;;;;15.02;63.95;96191.94;5108919;28;20215;-74
2022/10/17 09:04:35;;;;;;;32.90;15.83;;;;;;;15.72;62.42;96200.69;5109212;28;20235;-73
2022/10/17 09:07:10;;;;;;;20.47;12.53;;;;;;;16.35;59.08;96204.84;5077227;28;20196;-73
2022/10/17 09:09:45;;;;;;;19.27;11.53;;;;;;;16.90;53.69;96211.03;5108413;28;20218;-73
2022/10/17 09:12:18;;;;;;;16.97;10.87;;;;;;;17.32;52.14;96197.97;5108844;28;20196;-74
2022/10/17 09:15:08;;;;;;;18.77;10.63;;;;;;;17.51;50.26;96204.84;5108320;28;20204;-73
2022/10/17 09:17:43;;;;;;;21.07;10.17;;;;;;;17.98;49.40;96196.06;5105732;28;20203;-74
2022/10/17 09:20:18;;;;;;;21.23;9.20;;;;;;;18.28;46.24;96192.56;5107319;28;20195;-74
2022/10/17 09:22:50;;;;;;;14.00;9.43;;;;;;;18.53;46.60;96201.88;5108712;28;20269;-74
2022/10/17 09:25:19;;;;;;;17.10;10.20;;;;;;;18.82;46.71;96194.06;5108574;28;20207;-77
2022/10/17 09:27:48;;;;;;;17.85;9.95;;;;;;;19.37;45.23;96205.78;5108564;28;20208;-78
2022/10/17 09:30:36;;;;;;;16.90;9.80;;;;;;;19.91;44.21;96201.81;5108262;28;20211;-77
2022/10/17 09:33:11;;;;;;;15.88;7.35;;;;;;;20.20;41.84;96203.31;5107102;28;20589;-77
2022/10/17 09:35:40;;;;;;;10.57;6.68;;;;;;;20.68;40.23;96209.91;5106338;28;20226;-77
2022/10/17 09:38:15;;;;;;;12.65;7.15;;;;;;;21.03;39.46;96205.13;5106174;28;20706;-77
2022/10/17 09:40:42;;;;;;;10.45;6.53;;;;;;;21.36;37.90;96194.44;5106231;28;20248;-78
2022/10/17 09:43:13;;;;;;;16.10;6.22;;;;;;;21.84;37.97;96198.94;5106329;28;20227;-78
2022/10/17 09:45:49;;;;;;;11.98;6.95;;;;;;;22.11;36.75;96200.81;5106925;28;20296;-77
2022/10/17 09:48:26;;;;;;;14.00;6.82;;;;;;;21.84;35.74;96195.47;5109411;28;20214;-78
2022/10/17 09:50:53;;;;;;;11.23;6.78;;;;;;;22.16;35.78;96187.59;5108905;28;20216;-77
2022/10/17 09:53:23;;;;;;;14.48;6.75;;;;;;;22.72;35.09;96199.41;5108666;28;20204;-78
2022/10/17 09:55:54;;;;;;;11.07;5.82;;;;;;;23.12;34.34;96196.97;5107320;28;20219;-76
2022/10/17 09:58:21;;;;;;;13.18;6.18;;;;;;;23.62;32.59;96191.09;5108271;28;20830;-77
2022/10/17 10:00:50;;;;;;;9.70;5.90;;;;;;;23.94;30.79;96197.00;5110614;27;20231;-78
2022/10/17 10:03:19;;;;;;;12.82;6.88;;;;;;;24.26;31.28;96200.25;5108354;28;20227;-78
2022/10/17 10:06:00;;;;;;;13.65;6.40;;;;;;;24.04;29.81;96185.59;5107371;28;20261;-77
2022/10/17 10:08:30;;;;;;;11.50;5.60;;;;;;;24.20;28.61;96190.69;5108159;28;20195;-73
2022/10/17 10:11:03;;;;;;;8.13;4.60;;;;;;;23.80;28.65;96187.16;5108359;28;20208;-73
2022/10/17 10:13:31;;;;;;;13.57;6.00;;;;;;;24.37;28.31;96187.75;5105481;28;20192;-73
2022/10/17 10:16:15;;;;;;;9.63;5.28;;;;;;;24.47;27.59;96193.09;5107432;28;20200;-74
2022/10/17 10:18:42;;;;;;;11.43;5.25;;;;;;;24.91;28.04;96193.28;5106541;28;20199;-72
2022/10/17 10:21:12;;;;;;;9.38;4.32;;;;;;;25.26;27.49;96184.41;5107371;28;20208;-72
2022/10/17 10:23:40;;;;;;;6.50;4.03;;;;;;;25.65;26.78;96174.66;5107501;28;20235;-72
2022/10/17 10:26:26;;;;;;;7.50;4.10;;;;;;;26.15;26.29;96194.88;5107578;28;20207;-72
2022/10/17 10:28:56;;;;;;;5.47;4.10;;;;;;;26.27;24.70;96186.50;5107491;28;21037;-72
2022/10/17 10:31:33;;;;;;;6.13;3.67;;;;;;;26.39;24.76;96184.28;5107044;28;20768;-72
2022/10/17 10:34:22;;;;;;;7.30;3.70;;;;;;;26.23;24.24;96180.97;5104748;28;20199;-72
2022/10/17 10:36:53;;;;;;;5.80;3.40;;;;;;;26.30;23.96;96175.28;5107285;28;20200;-72
2022/10/17 10:39:43;;;;;;;4.75;2.88;;;;;;;26.88;23.47;96174.25;5107650;28;20220;-75
2022/10/17 10:42:21;;;;;;;5.68;3.00;;;;;;;27.27;22.30;96175.94;5101065;28;20754;-74
2022/10/17 10:44:49;;;;;;;6.53;3.08;;;;;;;27.40;22.15;96173.38;5107057;28;20203;-74
2022/10/17 10:47:22;;;;;;;8.05;2.97;;;;;;;27.60;22.89;96181.16;5106971;28;20210;-74
2022/10/17 10:49:52;;;;;;;4.55;3.15;;;;;;;27.93;22.23;96167.88;5107060;28;20200;-75
2022/10/17 10:52:31;;;;;;;5.28;3.25;;;;;;;27.72;21.82;96169.22;5107351;28;20283;-76
2022/10/17 10:55:10;;;;;;;7.07;3.30;;;;;;;27.50;22.51;96161.78;5106043;28;20207;-76
2022/10/17 10:57:38;;;;;;;6.32;3.55;;;;;;;27.79;23.00;96154.44;5106282;28;20215;-76
2022/10/17 11:00:14;;;;;;;6.35;3.30;;;;;;;27.96;21.98;96161.94;5107179;28;20200;-75
2022/10/17 11:02:52;;;;;;;7.80;3.25;;;;;;;28.42;23.05;96162.81;5097256;28;20722;-72
2022/10/17 11:05:24;;;;;;;8.73;3.45;;;;;;;28.46;23.33;96161.13;5106186;28;20291;-71
2022/10/17 11:07:56;;;;;;;4.60;3.30;;;;;;;28.83;23.14;96154.09;5106998;28;20212;-73
2022/10/17 11:10:30;;;;;;;6.43;3.35;;;;;;;28.46;23.18;96155.78;5106115;28;20223;-72
2022/10/17 11:13:03;;;;;;;4.07;3.25;;;;;;;28.42;22.65;96157.47;5094650;28;20195;-73
2022/10/17 11:15:35;;;;;;;4.63;3.10;;;;;;;28.17;23.14;96150.66;5092699;28;20193;-73
2022/10/17 11:18:06;;;;;;;5.22;3.15;;;;;;;28.52;22.25;96157.28;5105326;28;20200;-73
2022/10/17 11:20:43;;;;;;;3.47;2.80;;;;;;;28.91;20.42;96156.88;5105353;28;20243;-72
2022/10/17 11:23:19;;;;;;;5.38;3.40;;;;;;;29.03;21.28;96153.72;5104817;28;20208;-78
2022/10/17 11:25:48;;;;;;;5.38;3.00;;;;;;;29.38;21.17;96149.56;5104868;28;20226;-72
2022/10/17 11:28:17;;;;;;;5.10;3.38;;;;;;;29.49;19.93;96140.22;5105092;28;20638;-75
2022/10/17 11:30:51;;;;;;;3.83;3.13;;;;;;;29.61;20.11;96149.28;5105971;28;20215;-72
2022/10/17 11:33:27;;;;;;;9.32;3.30;;;;;;;29.57;20.37;96151.00;5106782;28;20203;-72
2022/10/17 11:36:01;;;;;;;5.57;3.30;;;;;;;29.19;19.89;96146.97;5102920;28;20200;-72